Time;durP1;ratioP1;P1;durP2;ratioP2;P2;SDS_P1;SDS_P2;PMS_P1;PMS_P2;Temp;Humidity;BMP_temperature;BMP_pressure;BME280_temperature;BME280_humidity;BME280_pressure;Samples;Min_cycle;Max_cycle;Signal;HPM_P1;HPM_P2
2023/01/06 00:01:25;;;;;;;7.90;4.78;;;;;;;8.27;46.96;94182.44;5028578;28;20374;-74
2023/01/06 00:03:52;;;;;;;8.73;4.97;;;;;;;8.33;47.83;94194.53;5024952;28;20033;-75
2023/01/06 00:06:19;;;;;;;8.02;4.78;;;;;;;8.19;47.94;94193.69;5027888;28;20264;-74
2023/01/06 00:08:44;;;;;;;7.90;4.55;;;;;;;8.12;47.62;94185.31;5026012;28;20029;-74
2023/01/06 00:11:14;;;;;;;6.15;4.18;;;;;;;8.16;48.12;94199.56;5029859;28;20115;-73
2023/01/06 00:13:40;;;;;;;6.35;4.75;;;;;;;7.97;48.65;94196.16;5027737;28;20022;-75
2023/01/06 00:16:17;;;;;;;7.10;4.38;;;;;;;8.03;48.91;94201.06;5028889;28;20032;-74
2023/01/06 00:18:43;;;;;;;7.35;4.85;;;;;;;8.20;49.07;94224.41;5026981;28;20445;-74
2023/01/06 00:21:09;;;;;;;6.22;4.82;;;;;;;8.21;48.38;94215.41;5026259;28;20048;-74
2023/01/06 00:23:35;;;;;;;9.20;5.25;;;;;;;8.12;49.35;94225.03;5027043;28;20045;-74
2023/01/06 00:26:02;;;;;;;11.82;5.78;;;;;;;7.98;49.77;94240.88;5025912;28;20041;-74
2023/01/06 00:28:28;;;;;;;8.05;5.13;;;;;;;7.85;50.15;94231.00;5027802;28;20108;-74
2023/01/06 00:30:53;;;;;;;7.55;5.53;;;;;;;7.71;50.78;94236.19;5028511;28;20336;-75
2023/01/06 00:33:19;;;;;;;9.02;5.40;;;;;;;7.52;51.12;94227.44;5030657;28;20587;-75
2023/01/06 00:35:44;;;;;;;8.30;5.45;;;;;;;7.67;51.09;94255.56;5028781;28;20127;-74
2023/01/06 00:38:10;;;;;;;7.05;4.93;;;;;;;7.65;51.57;94253.19;5035631;28;20037;-76
2023/01/06 00:40:36;;;;;;;6.78;5.15;;;;;;;7.64;51.57;94241.03;5025193;28;20032;-76
2023/01/06 00:43:02;;;;;;;9.57;4.70;;;;;;;7.80;51.69;94246.16;5029014;28;20108;-76
2023/01/06 00:45:27;;;;;;;7.13;5.13;;;;;;;7.63;51.80;94236.78;5026460;28;20034;-76
2023/01/06 00:47:52;;;;;;;8.48;6.07;;;;;;;7.39;52.78;94261.69;5028504;28;20051;-75
2023/01/06 00:50:18;;;;;;;7.20;5.18;;;;;;;7.27;52.94;94252.31;5026528;28;20514;-76
2023/01/06 00:52:43;;;;;;;8.30;5.70;;;;;;;7.15;53.26;94245.81;5028338;28;20068;-76
2023/01/06 00:55:09;;;;;;;6.75;4.30;;;;;;;7.22;53.54;94278.03;5027955;28;20135;-76
2023/01/06 00:57:34;;;;;;;8.13;5.15;;;;;;;7.10;53.71;94245.88;5026513;28;20116;-76
2023/01/06 01:00:00;;;;;;;9.77;4.70;;;;;;;7.12;53.70;94238.47;5027602;28;20036;-76
2023/01/06 01:02:25;;;;;;;6.25;4.13;;;;;;;7.12;54.12;94260.41;5028068;28;20037;-75
2023/01/06 01:04:50;;;;;;;8.50;5.25;;;;;;;7.04;54.32;94257.59;5026220;28;20618;-76
2023/01/06 01:07:16;;;;;;;6.72;4.50;;;;;;;7.04;54.67;94268.16;5028190;28;20017;-76
2023/01/06 01:09:41;;;;;;;9.63;5.53;;;;;;;6.94;54.87;94276.19;5025732;28;20084;-75
2023/01/06 01:12:08;;;;;;;7.70;4.65;;;;;;;6.74;55.57;94248.88;5025930;28;20030;-76
2023/01/06 01:14:35;;;;;;;7.97;4.95;;;;;;;6.83;55.35;94257.78;5032950;28;20521;-75
2023/01/06 01:17:00;;;;;;;7.28;5.32;;;;;;;6.69;55.35;94248.13;5023328;28;20041;-75
2023/01/06 01:19:27;;;;;;;6.55;4.80;;;;;;;6.89;55.50;94249.81;5026104;28;20453;-76
2023/01/06 01:21:52;;;;;;;7.47;4.93;;;;;;;6.72;55.71;94245.72;5027389;28;20109;-76
2023/01/06 01:24:18;;;;;;;6.65;4.40;;;;;;;6.85;55.40;94249.56;5028075;28;20624;-76
2023/01/06 01:26:44;;;;;;;7.18;5.07;;;;;;;6.93;55.27;94245.53;5023463;28;20452;-76
2023/01/06 01:29:11;;;;;;;8.00;5.25;;;;;;;6.79;55.53;94240.91;5027195;28;20029;-76
2023/01/06 01:31:36;;;;;;;6.80;4.88;;;;;;;6.91;54.89;94255.59;5035601;28;20017;-76
2023/01/06 01:34:02;;;;;;;10.90;5.03;;;;;;;6.83;54.86;94233.97;5024774;28;20528;-76
2023/01/06 01:36:28;;;;;;;7.53;5.20;;;;;;;6.82;54.76;94213.91;5027239;28;20192;-76
2023/01/06 01:38:57;;;;;;;8.05;4.95;;;;;;;7.03;54.47;94243.56;5026576;28;20043;-76
2023/01/06 01:41:24;;;;;;;7.43;4.70;;;;;;;7.00;54.84;94222.16;5025678;28;20033;-76
2023/01/06 01:43:56;;;;;;;8.20;4.63;;;;;;;7.03;54.43;94216.34;5026018;28;20044;-76
2023/01/06 01:46:42;;;;;;;7.00;4.50;;;;;;;7.00;54.66;94203.66;5027825;28;20028;-75
2023/01/06 01:49:28;;;;;;;6.93;3.85;;;;;;;6.91;54.11;94184.97;5025797;28;20552;-75
2023/01/06 01:51:55;;;;;;;5.43;3.83;;;;;;;6.85;54.04;94184.25;5028080;28;20591;-76
2023/01/06 01:54:27;;;;;;;5.63;3.58;;;;;;;6.83;53.75;94173.19;5034821;28;20316;-75
2023/01/06 01:57:00;;;;;;;4.65;3.45;;;;;;;6.86;53.29;94177.91;5024929;28;20033;-76
2023/01/06 01:59:30;;;;;;;4.53;2.83;;;;;;;6.80;53.25;94163.16;5025527;28;20138;-76
2023/01/06 02:01:56;;;;;;;5.15;2.78;;;;;;;6.86;53.16;94177.91;5024989;28;20083;-76
2023/01/06 02:04:24;;;;;;;4.88;2.58;;;;;;;6.85;53.28;94171.03;5027971;28;20136;-75
2023/01/06 02:06:50;;;;;;;2.42;1.63;;;;;;;6.95;52.46;94171.97;5025323;28;20041;-75
2023/01/06 02:09:38;;;;;;;4.85;1.95;;;;;;;7.04;51.77;94191.47;5026374;28;20041;-76
2023/01/06 02:12:04;;;;;;;2.00;1.52;;;;;;;6.93;51.32;94200.56;5021572;28;20111;-76
2023/01/06 02:14:29;;;;;;;2.38;1.70;;;;;;;6.85;51.73;94208.03;5027732;28;20152;-76
2023/01/06 02:17:48;;;;;;;3.03;2.10;;;;;;;6.88;51.43;94227.84;5025160;28;20122;-76
2023/01/06 02:20:41;;;;;;;3.67;2.00;;;;;;;6.42;51.84;94178.06;5020952;28;20033;-76
2023/01/06 02:23:32;;;;;;;3.33;1.77;;;;;;;6.81;51.89;94253.81;5022412;28;20045;-75
2023/01/06 02:26:36;;;;;;;3.75;2.45;;;;;;;6.82;52.22;94256.19;5026195;28;20048;-75
2023/01/06 02:29:34;;;;;;;2.92;2.63;;;;;;;6.75;52.70;94268.19;5022934;28;20040;-75
2023/01/06 02:32:21;;;;;;;4.07;3.20;;;;;;;6.74;53.02;94280.59;5008837;28;20041;-75
2023/01/06 02:35:05;;;;;;;6.10;3.10;;;;;;;6.72;52.98;94274.78;5025216;28;20052;-75
2023/01/06 02:37:36;;;;;;;8.23;5.55;;;;;;;6.60;53.23;94274.38;5027644;28;20033;-75
2023/01/06 02:40:32;;;;;;;5.18;2.92;;;;;;;6.42;53.73;94251.25;5025397;28;20024;-75
2023/01/06 02:43:16;;;;;;;9.05;2.92;;;;;;;6.46;53.61;94268.13;5026617;28;20064;-75
2023/01/06 02:45:45;;;;;;;5.45;3.75;;;;;;;6.54;53.56;94258.81;5027163;28;20037;-75
2023/01/06 02:48:36;;;;;;;6.88;3.70;;;;;;;6.51;53.58;94260.16;5025540;28;20029;-75
2023/01/06 02:51:15;;;;;;;5.80;2.95;;;;;;;6.45;53.55;94253.34;5022303;28;20116;-75
2023/01/06 02:54:02;;;;;;;4.35;3.03;;;;;;;6.35;53.93;94251.56;5024160;28;20033;-75
2023/01/06 02:56:32;;;;;;;5.93;3.90;;;;;;;6.26;54.03;94253.19;5025814;28;20029;-75
2023/01/06 02:59:06;;;;;;;6.72;3.80;;;;;;;6.34;53.66;94234.13;5026535;28;20041;-74
2023/01/06 03:01:45;;;;;;;3.85;2.97;;;;;;;6.45;53.18;94226.94;5024043;28;20025;-75
2023/01/06 03:04:23;;;;;;;5.22;3.65;;;;;;;6.49;53.23;94229.78;5022944;28;20052;-75
2023/01/06 03:06:51;;;;;;;5.55;3.78;;;;;;;6.35;53.42;94240.22;5027450;28;20436;-75
2023/01/06 03:09:20;;;;;;;7.05;4.22;;;;;;;6.07;53.52;94165.09;5023064;28;20423;-75
2023/01/06 03:11:49;;;;;;;5.43;3.40;;;;;;;6.19;52.45;94156.88;5026044;28;20037;-74
2023/01/06 03:14:29;;;;;;;4.70;3.40;;;;;;;6.34;52.40;94185.78;5022409;28;20038;-75
2023/01/06 03:16:55;;;;;;;9.60;3.70;;;;;;;6.33;52.34;94178.94;5025409;28;20148;-75
2023/01/06 03:19:21;;;;;;;6.45;3.58;;;;;;;6.35;52.18;94182.88;5025729;28;20071;-74
2023/01/06 03:21:50;;;;;;;7.72;4.53;;;;;;;6.39;52.35;94188.41;5024553;28;20049;-75
2023/01/06 03:24:16;;;;;;;8.95;5.45;;;;;;;6.41;53.03;94212.66;5025904;28;20505;-76
2023/01/06 03:26:44;;;;;;;5.80;3.75;;;;;;;6.28;52.34;94223.88;5025291;28;20043;-75
2023/01/06 03:29:13;;;;;;;6.18;3.55;;;;;;;6.02;52.83;94221.38;5037125;28;20052;-75
2023/01/06 03:31:49;;;;;;;7.55;4.30;;;;;;;6.01;53.19;94240.16;5029174;28;20071;-76
2023/01/06 03:34:42;;;;;;;2.22;1.90;;;;;;;6.04;53.41;94244.88;5028770;28;20077;-75
2023/01/06 03:37:26;;;;;;;6.07;2.75;;;;;;;6.02;53.01;94225.88;5037986;28;20778;-75
2023/01/06 03:40:29;;;;;;;3.60;2.70;;;;;;;5.96;53.34;94243.63;5026728;28;20458;-75
2023/01/06 03:43:12;;;;;;;5.55;3.78;;;;;;;5.96;53.25;94217.22;5030588;28;20489;-75
2023/01/06 03:45:49;;;;;;;6.45;3.85;;;;;;;5.86;53.68;94245.53;5029568;28;22032;-75
2023/01/06 03:48:46;;;;;;;4.88;2.90;;;;;;;5.90;54.02;94249.97;5026451;28;20040;-75
2023/01/06 03:51:37;;;;;;;6.50;3.40;;;;;;;5.94;53.95;94240.44;5027169;28;20654;-75
2023/01/06 03:54:15;;;;;;;6.05;4.05;;;;;;;5.96;54.10;94235.69;5026970;28;20052;-75
2023/01/06 03:56:47;;;;;;;11.40;5.63;;;;;;;5.96;53.60;94217.22;5029078;28;20673;-76
2023/01/06 03:59:19;;;;;;;7.10;4.47;;;;;;;5.98;53.72;94246.75;5027903;28;20040;-74
2023/01/06 04:01:46;;;;;;;4.72;3.28;;;;;;;6.00;53.56;94247.28;5029004;28;20512;-75
2023/01/06 04:04:12;;;;;;;9.60;5.72;;;;;;;5.91;53.29;94234.94;5027557;28;20082;-76
2023/01/06 04:06:37;;;;;;;6.32;3.72;;;;;;;5.68;53.41;94231.09;5026822;28;20030;-76
2023/01/06 04:09:03;;;;;;;6.82;3.63;;;;;;;5.87;53.90;94261.06;5027533;28;20588;-76
2023/01/06 04:14:12;;;;;;;8.77;4.30;;;;;;;5.74;53.22;94251.13;5028595;28;20068;-76
2023/01/06 04:16:38;;;;;;;7.00;4.80;;;;;;;5.81;53.31;94256.91;5028159;28;20512;-75
2023/01/06 04:19:03;;;;;;;5.57;3.35;;;;;;;5.78;53.47;94260.06;5030368;28;20021;-75
2023/01/06 04:21:28;;;;;;;7.55;4.95;;;;;;;5.91;53.49;94290.38;5027352;28;20576;-76
2023/01/06 04:23:54;;;;;;;10.52;4.72;;;;;;;5.76;53.42;94280.69;5029701;28;20038;-75
2023/01/06 04:26:19;;;;;;;10.43;5.35;;;;;;;5.89;52.57;94290.63;5027982;28;20622;-74
2023/01/06 04:28:45;;;;;;;11.65;5.65;;;;;;;5.94;53.15;94298.53;5026920;28;20030;-75
2023/01/06 04:31:10;;;;;;;13.50;5.90;;;;;;;6.00;52.44;94307.22;5029953;28;20033;-75
2023/01/06 04:33:36;;;;;;;5.75;3.75;;;;;;;5.89;52.90;94290.63;5026876;28;20045;-74
2023/01/06 04:36:03;;;;;;;11.30;5.35;;;;;;;5.71;53.11;94277.28;5035448;28;20428;-75
2023/01/06 04:38:28;;;;;;;8.20;4.50;;;;;;;5.74;53.32;94297.81;5023748;28;20057;-75
2023/01/06 04:40:54;;;;;;;9.73;4.45;;;;;;;5.64;53.55;94288.09;5028772;28;20822;-75
2023/01/06 04:43:19;;;;;;;5.28;3.60;;;;;;;5.62;53.78;94274.41;5027023;28;20428;-75
2023/01/06 04:45:45;;;;;;;8.18;4.75;;;;;;;5.64;53.57;94287.31;5029154;28;20030;-75
2023/01/06 04:48:11;;;;;;;13.45;5.00;;;;;;;5.70;53.24;94281.75;5027210;28;20021;-76
2023/01/06 04:50:37;;;;;;;8.18;3.97;;;;;;;5.73;52.99;94290.97;5026804;28;20029;-76
2023/01/06 04:53:08;;;;;;;5.00;3.22;;;;;;;5.87;52.86;94297.25;5027502;28;20493;-76
2023/01/06 04:55:37;;;;;;;10.25;5.80;;;;;;;5.53;53.22;94273.38;5028702;28;20029;-76
2023/01/06 04:58:03;;;;;;;3.65;2.97;;;;;;;5.82;52.67;94310.47;5025451;28;20372;-75
2023/01/06 05:00:28;;;;;;;4.30;2.22;;;;;;;5.73;53.22;94333.19;5029218;28;20029;-76
2023/01/06 05:02:53;;;;;;;7.70;4.15;;;;;;;5.89;53.05;94354.00;5033900;28;20037;-75
2023/01/06 05:05:19;;;;;;;8.63;4.97;;;;;;;5.70;53.49;94323.97;5028006;28;20474;-73
2023/01/06 05:07:44;;;;;;;8.77;5.20;;;;;;;5.78;53.50;94331.31;5029022;28;20037;-76
2023/01/06 05:10:10;;;;;;;7.07;3.15;;;;;;;5.79;53.77;94335.56;5027562;28;20029;-76
2023/01/06 05:12:36;;;;;;;10.20;4.95;;;;;;;5.82;53.39;94316.53;5027116;28;20322;-76
2023/01/06 05:15:01;;;;;;;9.13;4.80;;;;;;;5.88;53.49;94328.66;5025170;28;20576;-75
2023/01/06 05:17:27;;;;;;;7.57;5.18;;;;;;;5.87;53.40;94329.69;5033839;28;20041;-73
2023/01/06 05:19:52;;;;;;;6.50;3.30;;;;;;;5.80;53.67;94316.03;5028696;28;20052;-74
2023/01/06 05:22:18;;;;;;;7.50;4.05;;;;;;;5.87;53.41;94321.78;5028256;28;21101;-74
2023/01/06 05:24:44;;;;;;;5.18;3.08;;;;;;;5.62;54.24;94343.00;5029591;28;20136;-73
2023/01/06 05:27:09;;;;;;;4.57;2.25;;;;;;;5.70;54.05;94350.38;5026333;28;20120;-74
2023/01/06 05:29:35;;;;;;;7.78;4.47;;;;;;;5.52;53.70;94333.28;5035765;28;20388;-73
2023/01/06 05:32:01;;;;;;;3.80;2.22;;;;;;;5.64;53.33;94338.25;5026188;28;20076;-77
2023/01/06 05:34:26;;;;;;;4.55;3.53;;;;;;;5.79;52.96;94347.97;5032550;28;20455;-75
2023/01/06 05:36:52;;;;;;;4.10;3.00;;;;;;;5.74;52.56;94332.94;5027415;28;20084;-73
2023/01/06 05:39:17;;;;;;;8.10;3.88;;;;;;;5.95;52.17;94363.47;5028102;28;20045;-74
2023/01/06 05:41:43;;;;;;;4.80;3.15;;;;;;;5.80;51.85;94357.47;5026589;28;20045;-76
2023/01/06 05:44:08;;;;;;;3.78;2.88;;;;;;;5.74;52.22;94351.41;5026242;28;20065;-76
2023/01/06 05:46:34;;;;;;;4.28;3.40;;;;;;;5.55;52.45;94326.66;5025778;28;20029;-76
2023/01/06 05:49:00;;;;;;;6.55;3.42;;;;;;;5.58;52.84;94345.38;5026095;28;20028;-76
2023/01/06 05:51:26;;;;;;;9.52;5.10;;;;;;;5.58;51.96;94336.66;5024309;28;20201;-74
2023/01/06 05:53:52;;;;;;;8.15;5.22;;;;;;;5.61;51.94;94343.28;5023843;28;20030;-74
2023/01/06 05:56:19;;;;;;;4.47;2.83;;;;;;;5.46;51.40;94301.91;5026941;28;20025;-74
2023/01/06 05:58:47;;;;;;;3.35;2.70;;;;;;;5.68;51.57;94346.41;5024480;28;20136;-75
2023/01/06 06:01:17;;;;;;;4.55;2.70;;;;;;;5.55;51.82;94353.06;5027121;28;20027;-75
2023/01/06 06:03:42;;;;;;;8.25;3.78;;;;;;;5.38;52.11;94321.69;5028441;28;20839;-74
2023/01/06 06:06:08;;;;;;;4.22;2.95;;;;;;;5.36;52.68;94349.41;5025015;28;20419;-74
2023/01/06 06:08:33;;;;;;;5.20;2.90;;;;;;;5.40;51.90;94342.53;5025266;28;20551;-74
2023/01/06 06:11:03;;;;;;;5.38;2.80;;;;;;;5.23;52.03;94315.69;5032364;28;20163;-74
2023/01/06 06:13:29;;;;;;;3.17;2.67;;;;;;;5.62;51.21;94340.38;5025538;28;20055;-74
2023/01/06 06:16:15;;;;;;;3.05;2.58;;;;;;;5.61;50.44;94357.25;5026040;28;20492;-77
2023/01/06 06:18:41;;;;;;;3.42;2.03;;;;;;;5.58;50.20;94353.28;5032891;28;20102;-76
2023/01/06 06:21:16;;;;;;;4.22;2.17;;;;;;;5.62;50.24;94366.75;5022888;28;20040;-74
2023/01/06 06:23:41;;;;;;;3.40;2.40;;;;;;;5.75;49.79;94368.84;5034074;28;20499;-73
2023/01/06 06:26:09;;;;;;;3.20;2.25;;;;;;;5.59;50.24;94369.94;5025746;28;20037;-74
2023/01/06 06:28:36;;;;;;;3.22;1.90;;;;;;;5.70;50.29;94378.59;5023799;28;20028;-75
2023/01/06 06:31:04;;;;;;;4.25;2.53;;;;;;;5.86;49.41;94396.78;5028143;28;20041;-77
2023/01/06 06:33:29;;;;;;;2.63;2.30;;;;;;;5.87;49.34;94376.47;5031259;28;20049;-77
2023/01/06 06:35:56;;;;;;;3.92;2.25;;;;;;;5.99;49.91;94404.13;5025967;28;20043;-74
2023/01/06 06:38:23;;;;;;;4.10;2.05;;;;;;;6.06;49.23;94392.50;5026546;28;20516;-74
2023/01/06 06:40:49;;;;;;;3.38;2.00;;;;;;;6.10;49.39;94396.97;5023993;28;20044;-76
2023/01/06 06:43:15;;;;;;;2.80;2.35;;;;;;;6.11;49.00;94413.59;5034256;28;20028;-76
2023/01/06 06:45:43;;;;;;;3.22;2.42;;;;;;;6.00;49.40;94403.06;5026734;28;20566;-76
2023/01/06 06:48:08;;;;;;;2.33;1.63;;;;;;;6.02;49.34;94408.06;5024251;28;20060;-76
2023/01/06 06:50:34;;;;;;;2.13;1.70;;;;;;;5.93;49.41;94407.84;5027055;28;20393;-76
2023/01/06 06:52:59;;;;;;;3.38;1.90;;;;;;;5.88;49.58;94404.41;5025581;28;20094;-76
2023/01/06 06:55:24;;;;;;;4.15;2.10;;;;;;;5.71;49.74;94377.56;5026815;28;20109;-76
2023/01/06 06:57:50;;;;;;;3.65;1.90;;;;;;;5.82;49.83;94382.50;5025355;28;20021;-76
2023/01/06 07:00:15;;;;;;;2.20;1.65;;;;;;;5.89;49.81;94416.56;5024558;28;20552;-76
2023/01/06 07:02:41;;;;;;;2.00;1.80;;;;;;;5.87;49.79;94413.41;5022759;28;20577;-75
2023/01/06 07:05:06;;;;;;;3.80;2.20;;;;;;;5.92;49.26;94385.13;5024805;28;20064;-76
2023/01/06 07:07:32;;;;;;;2.70;2.22;;;;;;;5.91;49.47;94398.63;5024156;28;20479;-76
2023/01/06 07:09:57;;;;;;;3.05;2.03;;;;;;;6.07;49.11;94409.91;5025847;28;20029;-76
2023/01/06 07:12:22;;;;;;;3.17;2.05;;;;;;;6.20;48.82;94417.28;5021790;28;20532;-74
2023/01/06 07:14:48;;;;;;;2.72;1.77;;;;;;;6.23;48.19;94424.66;5021497;28;20044;-74
2023/01/06 07:17:13;;;;;;;2.80;2.17;;;;;;;6.26;48.69;94422.25;5021935;28;20049;-75
2023/01/06 07:19:38;;;;;;;4.03;2.20;;;;;;;6.27;48.21;94408.00;5023750;28;20071;-76
2023/01/06 07:22:04;;;;;;;2.55;1.83;;;;;;;6.28;48.17;94429.91;5024841;28;20041;-75
2023/01/06 07:24:29;;;;;;;7.15;2.35;;;;;;;6.27;48.70;94429.13;5020649;28;20517;-76
2023/01/06 07:26:54;;;;;;;3.08;2.42;;;;;;;6.23;48.89;94427.28;5018269;28;20126;-76
2023/01/06 07:29:20;;;;;;;3.70;2.55;;;;;;;6.29;48.90;94442.06;5014471;28;20072;-75
2023/01/06 07:31:46;;;;;;;2.17;1.58;;;;;;;6.11;48.96;94418.88;5020954;28;20053;-77
2023/01/06 07:34:11;;;;;;;2.22;1.60;;;;;;;6.18;48.68;94435.25;5021693;28;20053;-76
2023/01/06 07:36:37;;;;;;;5.20;2.20;;;;;;;6.18;49.04;94445.81;5018633;28;20156;-73
2023/01/06 07:39:02;;;;;;;2.90;1.63;;;;;;;6.06;49.62;94437.38;5024679;28;20563;-76
2023/01/06 07:41:30;;;;;;;2.30;1.90;;;;;;;6.14;49.17;94439.44;5023384;28;20353;-76
2023/01/06 07:43:55;;;;;;;4.57;2.38;;;;;;;6.02;49.01;94417.84;5026649;28;20239;-76
2023/01/06 07:46:21;;;;;;;3.65;1.60;;;;;;;6.05;49.70;94433.16;5018966;28;20227;-74
2023/01/06 07:48:46;;;;;;;4.80;2.53;;;;;;;5.98;49.33;94434.22;5018488;28;20547;-76
2023/01/06 07:51:12;;;;;;;3.28;2.10;;;;;;;6.00;49.65;94445.31;5018100;28;20041;-76
2023/01/06 07:53:37;;;;;;;3.55;1.92;;;;;;;5.91;49.40;94436.38;5023060;28;20959;-74
2023/01/06 07:56:03;;;;;;;6.15;2.63;;;;;;;6.08;49.48;94451.09;5023543;28;20025;-75
2023/01/06 07:58:28;;;;;;;4.05;2.20;;;;;;;5.98;49.53;94451.91;5022427;28;20029;-75
2023/01/06 08:00:53;;;;;;;4.50;2.55;;;;;;;6.14;49.61;94455.31;5022206;28;20500;-76
2023/01/06 08:03:19;;;;;;;3.30;2.08;;;;;;;6.02;49.68;94432.63;5022273;28;20451;-76
2023/01/06 08:05:45;;;;;;;2.90;1.70;;;;;;;6.10;49.54;94452.41;5011850;28;20053;-74
2023/01/06 08:08:11;;;;;;;3.67;1.90;;;;;;;5.96;49.52;94443.47;5024976;28;20433;-75
2023/01/06 08:10:41;;;;;;;3.03;2.15;;;;;;;6.02;49.54;94464.31;5016493;28;20021;-75
2023/01/06 08:13:07;;;;;;;5.63;3.97;;;;;;;6.08;49.41;94453.72;5022137;28;20021;-73
2023/01/06 08:15:33;;;;;;;10.75;5.55;;;;;;;6.24;49.03;94460.59;5025588;28;20596;-74
2023/01/06 08:17:59;;;;;;;11.82;6.88;;;;;;;6.38;48.78;94461.56;5026344;28;20564;-73
2023/01/06 08:20:24;;;;;;;11.55;5.95;;;;;;;6.38;48.56;94443.09;5023795;28;20235;-74
2023/01/06 08:22:49;;;;;;;6.43;3.97;;;;;;;6.52;48.46;94461.78;5024311;28;21001;-73
2023/01/06 08:25:15;;;;;;;17.60;9.27;;;;;;;6.40;48.38;94464.75;5024695;28;20029;-74
2023/01/06 08:27:40;;;;;;;6.95;4.00;;;;;;;6.39;48.37;94468.44;5026122;28;20802;-74
2023/01/06 08:30:06;;;;;;;6.70;4.30;;;;;;;6.69;48.35;94491.31;5026316;28;20413;-76
2023/01/06 08:32:32;;;;;;;7.85;4.50;;;;;;;6.70;47.54;94491.03;5024852;28;20052;-77
2023/01/06 08:34:57;;;;;;;7.13;3.97;;;;;;;6.90;48.16;94487.47;5023404;28;20416;-74
2023/01/06 08:37:23;;;;;;;4.07;2.15;;;;;;;7.05;47.39;94497.19;5029718;28;20025;-74
2023/01/06 08:39:48;;;;;;;7.60;4.00;;;;;;;7.13;47.04;94499.28;5026839;28;20424;-74
2023/01/06 08:42:13;;;;;;;3.20;2.00;;;;;;;7.10;46.58;94481.28;5025379;28;20036;-74
2023/01/06 08:44:39;;;;;;;7.45;3.65;;;;;;;7.01;46.96;94491.66;5024431;28;20075;-74
2023/01/06 08:47:04;;;;;;;9.82;5.10;;;;;;;6.88;46.81;94475.63;5031877;28;20038;-75
2023/01/06 08:49:30;;;;;;;5.38;3.13;;;;;;;6.86;46.97;94484.59;5022958;28;20148;-74
2023/01/06 08:51:55;;;;;;;4.28;2.53;;;;;;;7.06;47.14;94482.91;5024983;28;20025;-76
2023/01/06 08:54:21;;;;;;;4.22;2.15;;;;;;;7.22;45.82;94487.03;5023786;28;20143;-77
2023/01/06 08:56:46;;;;;;;7.00;3.33;;;;;;;7.20;46.20;94483.88;5025739;28;20052;-75
2023/01/06 08:59:15;;;;;;;5.72;3.85;;;;;;;7.13;46.27;94472.81;5023090;28;20107;-76
2023/01/06 09:01:41;;;;;;;6.25;2.92;;;;;;;7.18;46.41;94467.50;5019550;28;20152;-76
2023/01/06 09:04:08;;;;;;;8.52;4.93;;;;;;;7.08;46.88;94476.28;5025075;28;20421;-76
2023/01/06 09:06:34;;;;;;;3.55;2.28;;;;;;;6.97;46.92;94461.53;5022451;28;20048;-76
2023/01/06 09:09:01;;;;;;;4.38;2.47;;;;;;;7.17;47.10;94479.94;5027789;28;20045;-76
2023/01/06 09:11:27;;;;;;;3.53;1.95;;;;;;;7.32;46.61;94463.16;5021279;28;20358;-75
2023/01/06 09:13:53;;;;;;;11.25;7.18;;;;;;;7.52;46.43;94455.06;5018994;28;20048;-76
2023/01/06 09:16:19;;;;;;;5.80;2.60;;;;;;;7.52;45.87;94457.69;5022200;28;20369;-76
2023/01/06 09:18:51;;;;;;;4.03;2.92;;;;;;;7.41;46.31;94450.91;5020155;28;20056;-75
2023/01/06 09:21:20;;;;;;;5.45;3.67;;;;;;;7.59;46.19;94455.50;5025238;28;20504;-76
2023/01/06 09:23:47;;;;;;;4.65;2.90;;;;;;;7.82;45.99;94458.53;5022013;28;20198;-76
2023/01/06 09:26:14;;;;;;;8.20;4.68;;;;;;;7.97;46.18;94458.38;5021334;28;20048;-76
2023/01/06 09:28:40;;;;;;;4.15;3.03;;;;;;;7.88;46.08;94446.78;5026287;28;20016;-76
2023/01/06 09:31:06;;;;;;;4.80;2.22;;;;;;;7.87;46.08;94461.13;5026775;28;20496;-76
2023/01/06 09:33:31;;;;;;;3.92;2.20;;;;;;;7.44;45.94;94442.41;5022430;28;20132;-76
2023/01/06 09:35:56;;;;;;;2.92;1.70;;;;;;;7.45;45.52;94443.97;5020886;28;20477;-75
2023/01/06 09:38:22;;;;;;;2.17;1.30;;;;;;;7.38;45.90;94440.88;5023675;28;20045;-75
2023/01/06 09:41:08;;;;;;;1.85;1.10;;;;;;;7.30;46.09;94436.16;5022111;28;20045;-74
2023/01/06 09:44:03;;;;;;;3.10;1.70;;;;;;;7.45;46.27;94433.41;5022298;28;20344;-74
2023/01/06 09:46:34;;;;;;;2.83;1.98;;;;;;;7.36;46.67;94413.09;5024989;28;20313;-74
2023/01/06 09:49:37;;;;;;;4.45;1.83;;;;;;;7.45;46.30;94422.00;5029512;28;20683;-74
2023/01/06 09:52:11;;;;;;;2.90;1.77;;;;;;;7.53;45.58;94424.09;5024478;28;20049;-75
2023/01/06 09:54:44;;;;;;;2.45;1.40;;;;;;;7.44;46.04;94409.84;5024283;28;20040;-75
2023/01/06 09:57:19;;;;;;;2.92;2.00;;;;;;;7.53;45.91;94408.97;5022873;28;20497;-75
2023/01/06 09:59:54;;;;;;;3.60;1.98;;;;;;;7.61;45.93;94420.81;5023444;28;20040;-74
2023/01/06 10:02:48;;;;;;;2.03;1.42;;;;;;;7.62;45.28;94407.31;5025266;28;20374;-76
2023/01/06 10:05:31;;;;;;;1.77;1.20;;;;;;;7.73;45.51;94424.69;5022137;28;20133;-75
2023/01/06 10:08:07;;;;;;;1.48;1.13;;;;;;;7.65;44.66;94405.94;5025785;28;20449;-74
2023/01/06 10:10:57;;;;;;;1.33;1.20;;;;;;;7.58;44.50;94389.63;5024457;28;20479;-75
2023/01/06 10:13:44;;;;;;;4.93;1.23;;;;;;;7.35;44.55;94401.72;5023530;28;20025;-76
2023/01/06 10:16:37;;;;;;;2.15;1.20;;;;;;;7.12;45.21;94382.09;5021285;28;20202;-75
2023/01/06 10:19:18;;;;;;;1.10;1.00;;;;;;;7.33;44.90;94377.41;5020410;28;20038;-75
2023/01/06 10:22:14;;;;;;;2.03;1.30;;;;;;;7.57;45.09;94404.72;5022970;28;20072;-74
2023/01/06 10:24:58;;;;;;;3.10;1.20;;;;;;;7.57;44.70;94399.41;5000839;28;20069;-74
2023/01/06 10:27:40;;;;;;;2.45;1.15;;;;;;;7.59;44.54;94407.84;5023684;28;20028;-75
2023/01/06 10:30:27;;;;;;;2.67;1.52;;;;;;;7.82;44.54;94402.91;5019840;28;20120;-75
2023/01/06 10:32:53;;;;;;;5.85;2.72;;;;;;;7.67;44.53;94374.69;5020179;28;20119;-74
2023/01/06 10:35:23;;;;;;;4.93;2.90;;;;;;;7.98;44.62;94409.59;5028538;28;20816;-75
2023/01/06 10:37:50;;;;;;;4.57;2.22;;;;;;;7.96;43.76;94414.41;5020201;28;20037;-75
2023/01/06 10:40:28;;;;;;;4.53;1.42;;;;;;;7.98;44.06;94406.94;5021597;28;20029;-75
2023/01/06 10:43:07;;;;;;;5.45;2.05;;;;;;;8.05;44.63;94399.47;5018871;28;20397;-75
2023/01/06 10:45:36;;;;;;;2.72;1.70;;;;;;;8.02;44.25;94400.03;5022463;28;20045;-75
2023/01/06 10:48:05;;;;;;;2.08;1.67;;;;;;;8.05;44.04;94373.78;5021212;28;20335;-75
2023/01/06 10:50:33;;;;;;;2.00;1.80;;;;;;;8.20;44.15;94380.75;5020259;28;20033;-75
2023/01/06 10:52:58;;;;;;;2.00;1.77;;;;;;;8.01;44.67;94345.47;5024228;28;20041;-75
2023/01/06 10:55:24;;;;;;;2.78;1.75;;;;;;;7.97;44.05;94332.00;5018837;28;20017;-76
2023/01/06 10:57:51;;;;;;;2.88;1.73;;;;;;;8.09;44.27;94358.09;5028602;28;20568;-74
2023/01/06 11:00:22;;;;;;;3.45;2.28;;;;;;;7.88;44.12;94356.75;5020408;28;22302;-75
2023/01/06 11:02:54;;;;;;;2.63;2.42;;;;;;;7.80;44.31;94341.50;5021923;28;20539;-75
2023/01/06 11:05:24;;;;;;;5.40;2.38;;;;;;;7.96;44.79;94342.91;5021203;28;20056;-75
2023/01/06 11:07:57;;;;;;;5.65;2.10;;;;;;;8.12;44.44;94355.66;5023777;28;20732;-75
2023/01/06 11:10:33;;;;;;;3.92;2.58;;;;;;;7.98;44.98;94346.03;5021159;28;20032;-75
2023/01/06 11:13:01;;;;;;;3.38;2.03;;;;;;;8.19;44.77;94363.28;5020259;28;20041;-74
2023/01/06 11:15:37;;;;;;;4.40;2.30;;;;;;;7.99;44.33;94337.81;5021175;28;20037;-75
2023/01/06 11:18:04;;;;;;;2.05;1.70;;;;;;;8.14;44.44;94348.22;5019681;28;20038;-74
2023/01/06 11:20:33;;;;;;;4.43;2.28;;;;;;;8.06;44.64;94346.22;5020939;28;20513;-75
2023/01/06 11:23:31;;;;;;;4.35;2.20;;;;;;;8.13;44.70;94348.50;5023269;28;20037;-75
2023/01/06 11:26:11;;;;;;;5.82;3.60;;;;;;;8.32;44.23;94353.81;5011717;28;20512;-75
2023/01/06 11:28:42;;;;;;;3.42;1.90;;;;;;;7.88;44.72;94352.25;5020564;28;20025;-75
2023/01/06 11:31:13;;;;;;;4.43;2.65;;;;;;;7.82;44.46;94368.50;5025064;28;20044;-74
2023/01/06 11:33:51;;;;;;;2.92;1.70;;;;;;;7.79;44.43;94343.34;5017524;28;20071;-75
2023/01/06 11:36:19;;;;;;;3.05;1.83;;;;;;;7.97;44.45;94352.44;5037323;28;20295;-75
2023/01/06 11:38:48;;;;;;;3.45;1.70;;;;;;;7.80;43.96;94302.56;5020475;28;20574;-75
2023/01/06 11:41:23;;;;;;;2.17;1.88;;;;;;;8.00;43.95;94333.31;5022609;28;20044;-75
2023/01/06 11:43:49;;;;;;;4.53;2.22;;;;;;;8.11;43.93;94343.50;5023239;28;20052;-75
2023/01/06 11:46:15;;;;;;;2.88;2.10;;;;;;;8.28;44.21;94348.31;5022608;28;20021;-75
2023/01/06 11:48:57;;;;;;;2.10;1.67;;;;;;;7.93;43.46;94311.66;5025031;28;20600;-75
2023/01/06 11:51:45;;;;;;;3.58;1.35;;;;;;;7.89;43.57;94359.13;5026786;28;20535;-75
2023/01/06 11:54:54;;;;;;;2.70;2.40;;;;;;;7.98;43.81;94367.22;5033721;28;20120;-75
2023/01/06 11:57:41;;;;;;;5.40;3.17;;;;;;;7.93;44.13;94354.81;5008871;28;20453;-75
2023/01/06 12:00:25;;;;;;;4.22;3.13;;;;;;;7.77;44.28;94358.75;5021178;28;20553;-74